Station BSBM4 - Big Sable Point, MI Image indicating link to RSS feed of recent meteorological observations for station BSBM4


Conditions at BSBM4 as of
(3:40 am EDT)
0740 GMT on 09/03/2026:
     

Click on the graph icon in the table below to see a time series plot of the last five days of that observation.

5-day plot - Wind Direction Wind Direction (WDIR): SE ( 140 deg true )
5-day plot - Wind Speed Wind Speed (WSPD): 1.9 kts
5-day plot - Wind Gust Wind Gust (GST): 2.9 kts
5-day plot - Atmospheric Pressure Atmospheric Pressure (PRES):29.96 in
5-day plot - Air Temperature Air Temperature (ATMP): 68.2 °F
5-day plot - Wind Speed at 10 Meters Wind Speed at 10 meters (WSPD10M): 1.9 kts
5-day plot - Wind Speed at 20 Meters Wind Speed at 20 meters (WSPD20M): 1.9 kts
5-day plot -  Wind Speed, Wind Gust and Atmospheric Pressure Combined plot of Wind Speed, Gust, and Air Pressure
Previous observations
TIME
(EDT)
5-day plot - Wind Direction
WDIR
 
5-day plot - Wind Speed
WSPD
kts
5-day plot - Wind Gust
GST
kts
5-day plot - Wave Height
WVHT
ft
5-day plot - Dominant Wave Period
DPD
sec
5-day plot - Average Wave Period
APD
sec
5-day plot - Mean Wave Direction
MWD
 
5-day plot - Atmospheric Pressure
PRES
in
5-day plot - Pressure Tendency
PTDY
in
5-day plot - Air Temperature
ATMP
°F
5-day plot - Water Temperature
WTMP
°F
5-day plot - Dew Point
DEWP
°F
5-day plot - Salinity
SAL
psu
5-day plot - Visibility
VIS
nmi
5-day plot - Tide (above MLLW)
TIDE
ft
2026-09-03 03:30 amSSE 2.9 2.9----29.96- 67.5-----
2026-09-03 03:20 am SE 2.9 4.1----29.96- 68.0-----
2026-09-03 03:10 am SE 2.9 4.1----29.96- 68.0-----
2026-09-03 03:00 amSSE 2.9 2.9----29.96+0.01 67.8-----
2026-09-03 02:50 am SE 1.9 2.9----29.96- 67.8-----
2026-09-03 02:40 am SE 1.9 2.9----29.96- 68.5-----
2026-09-03 02:30 am- 0.0 2.9----29.95- 68.5-----
2026-09-03 02:20 am NE 2.9 2.9----29.95- 68.5-----
2026-09-03 02:10 amNNE 2.9 2.9----29.95- 68.9-----
2026-09-03 02:00 amNNE 2.9 4.1----29.95+0.00 68.9-----
2026-09-03 01:50 amENE 1.9 2.9----29.95- 69.1-----
2026-09-03 01:40 am E 2.9 2.9----29.95- 69.1-----
2026-09-03 01:30 am SE 1.9 2.9----29.95- 69.3-----
2026-09-03 01:20 am SE 2.9 2.9----29.95- 69.6-----
2026-09-03 01:10 am E 2.9 4.1----29.95- 69.3-----
2026-09-03 01:00 am E 4.1 4.1----29.95+0.00 68.9-----
2026-09-03 12:50 am E 4.1 4.1----29.95- 68.9-----
2026-09-03 12:40 am E 2.9 2.9----29.95- 69.4-----
2026-09-03 12:30 am E 2.9 2.9----29.95- 69.4-----
2026-09-03 12:20 amENE 2.9 4.1----29.95- 68.2-----
2026-09-03 12:10 amENE 2.9 4.1----29.95- 68.2-----
2026-09-03 12:00 amENE 2.9 2.9----29.95+0.02 68.2-----
2026-09-02 11:50 pm E 2.9 2.9----29.95- 68.2-----
2026-09-02 11:40 pmESE 1.9 2.9----29.95- 68.5-----
2026-09-02 11:30 pmESE 1.9 1.9----29.95- 68.9-----
2026-09-02 11:20 pmESE 1.9 1.9----29.95- 68.7-----
2026-09-02 11:10 pmESE 1.9 1.9----29.95- 68.9-----
2026-09-02 11:00 pm- 0.0 1.0----29.95+0.02 68.9-----
2026-09-02 10:50 pm- 0.0 1.9----29.95- 69.3-----
2026-09-02 10:40 pm S 1.9 4.1----29.95- 69.3-----
2026-09-02 10:30 pm SE 1.9 1.9----29.95- 69.6-----
2026-09-02 10:20 pm E 1.9 1.9----29.95- 70.0-----
2026-09-02 10:10 pm NE 1.0 2.9----29.95- 70.2-----
2026-09-02 10:00 pm NE 2.9 4.1----29.95+0.01 70.3-----
2026-09-02 09:50 pmNNE 4.1 5.1----29.95- 70.3-----
2026-09-02 09:40 pm NE 4.1 4.1----29.94- 70.3-----
2026-09-02 09:30 pm NE 4.1 4.1----29.94- 70.9-----
2026-09-02 09:20 pmNNE 4.1 6.0----29.94- 71.2-----
2026-09-02 09:10 pmNNE 5.1 5.1----29.93- 71.2-----
2026-09-02 09:00 pm NE 2.9 2.9----29.93-0.01 72.0-----
2026-09-02 08:50 pm NE 1.0 1.9----29.93- 72.3-----
2026-09-02 08:40 pm NE 1.9 1.9----29.93- 73.0-----
2026-09-02 08:30 pmNNE 2.9 2.9----29.93- 73.6-----
2026-09-02 08:20 pm- 0.0 1.0----29.93- 74.7-----
2026-09-02 08:10 pmENE 1.0 1.9----29.93- 75.0-----
2026-09-02 08:00 pmENE 1.9 2.9----29.93-0.02 75.6-----
2026-09-02 07:50 pm E 1.9 2.9----29.93- 75.9-----
2026-09-02 07:40 pm E 1.9 2.9----29.93- 76.5-----
2026-09-02 07:30 pm E 1.9 2.9----29.93- 77.2-----
2026-09-02 07:20 pm SE 1.0 2.9----29.93- 80.1-----
2026-09-02 07:10 pm E 1.9 2.9----29.93- 77.7-----
2026-09-02 07:00 pmENE 1.9 2.9----29.94-0.02 77.5-----
2026-09-02 06:50 pmENE 1.9 4.1----29.94- 75.9-----
2026-09-02 06:40 pmENE 2.9 5.1----29.94- 74.5-----
2026-09-02 06:30 pm NE 5.1 6.0----29.94- 73.8-----
2026-09-02 06:20 pmNNE 4.1 6.0----29.95- 73.6-----
2026-09-02 06:10 pmNNE 5.1 6.0----29.94- 73.8-----
2026-09-02 06:00 pmNNE 5.1 6.0----29.94-0.02 73.8-----
2026-09-02 05:50 pmNNE 4.1 8.9----29.95- 73.8-----
2026-09-02 05:40 pmNNE 7.0 8.9----29.95- 73.4-----
2026-09-02 05:30 pmNNE 5.1 8.0----29.95- 74.3-----
2026-09-02 05:20 pmNNE 7.0 8.9----29.95- 73.9-----
2026-09-02 05:10 pmNNE 6.0 8.0----29.95- 74.3-----
2026-09-02 05:00 pm N 5.1 6.0----29.95-0.02 75.7-----
2026-09-02 04:50 pmNNE 4.1 7.0----29.95- 75.4-----
2026-09-02 04:40 pm N 4.1 6.0----29.95- 76.3-----
2026-09-02 04:30 pmNNE 4.1 6.0----29.94- 75.9-----
2026-09-02 04:20 pm N 4.1 6.0----29.95- 76.3-----
2026-09-02 04:10 pm N 4.1 6.0----29.95- 75.9-----
2026-09-02 04:00 pm N 5.1 6.0----29.96+0.00 74.7-----
2026-09-02 03:50 pm N 4.1 6.0----29.96- 75.7-----
2026-09-02 03:40 pm N 2.9 4.1----29.96- 77.0-----
2026-09-02 03:30 pmNNW 1.9 2.9----29.96- 77.4-----
2026-09-02 03:20 pm N 1.9 5.1----29.96- 76.6-----
2026-09-02 03:10 pm N 1.9 4.1----29.96- 75.9-----
2026-09-02 03:00 pmNNE 4.1 6.0----29.96+0.01 75.0-----
2026-09-02 02:50 pm N 4.1 5.1----29.96- 73.9-----
2026-09-02 02:40 pm N 2.9 5.1----29.97- 73.8-----
2026-09-02 02:30 pmNNE 5.1 7.0----29.97- 73.2-----
2026-09-02 02:20 pm N 5.1 9.9----29.97- 72.5-----
2026-09-02 02:10 pm N 8.0 9.9----29.97- 72.7-----
2026-09-02 02:00 pm N 8.0 12.0----29.97+0.01 72.5-----
2026-09-02 01:50 pm N 8.0 9.9----29.96- 75.4-----
2026-09-02 01:40 pm W 1.9 6.0----29.96- 75.6-----
2026-09-02 01:30 pm S 4.1 8.0----29.95- 76.1-----
2026-09-02 01:20 pmSSE 1.9 5.1----29.96- 74.3-----
2026-09-02 01:10 pm S 4.1 8.0----29.96- 72.7-----
2026-09-02 01:00 pm SE 5.1 8.0----29.96+0.01 72.0-----
2026-09-02 12:50 pm W 8.9 12.0----29.99- 72.3-----
2026-09-02 12:40 pmSSW 6.0 13.0----29.98- 73.0-----
2026-09-02 12:30 pm S 4.1 6.0----29.96- 73.2-----
2026-09-02 12:20 pm S 4.1 7.0----29.96- 73.9-----
2026-09-02 12:10 pmSSW 2.9 7.0----29.96- 73.8-----
2026-09-02 12:00 pm S 5.1 7.0----29.95-0.04 74.1-----
2026-09-02 11:50 amSSW 2.9 4.1----29.96- 73.9-----
2026-09-02 11:40 amSSW 2.9 5.1----29.96- 74.5-----
2026-09-02 11:30 amSSW 2.9 6.0----29.97- 78.1-----
2026-09-02 11:20 amSSE 4.1 5.1----29.97- 80.1-----
2026-09-02 11:10 am E 4.1 6.0----29.96- 77.9-----
2026-09-02 11:00 amSSE 5.1 8.0----29.96-0.04 77.5-----
2026-09-02 10:50 am SE 5.1 8.0----29.96- 75.4-----
2026-09-02 10:40 am SE 5.1 9.9----29.96- 74.1-----
2026-09-02 10:30 am E 7.0 11.1----29.95- 73.6-----
2026-09-02 10:20 am E 7.0 11.1----29.95- 71.8-----
2026-09-02 10:10 am E 7.0 13.0----29.95- 71.2-----
2026-09-02 10:00 amESE 9.9 12.0----29.95-0.02 70.9-----
2026-09-02 09:50 am E 7.0 9.9----29.96- 70.7-----
2026-09-02 09:40 am E 7.0 11.1----29.96- 71.1-----
2026-09-02 09:30 am E 8.0 11.1----29.96- 70.2-----
2026-09-02 09:20 am E 6.0 11.1----29.97- 69.1-----
2026-09-02 09:10 am E 6.0 8.0----29.98- 69.1-----
2026-09-02 09:00 amENE 6.0 9.9----29.99+0.06 68.9-----
2026-09-02 08:50 amENE 8.0 9.9----29.98- 68.2-----
2026-09-02 08:40 amENE 8.0 9.9----29.99- 68.2-----
2026-09-02 08:30 amENE 8.0 15.0----30.00- 68.5-----
2026-09-02 08:20 amNNE 12.0 15.9----30.00- 68.9-----
2026-09-02 08:10 am NE 8.0 12.0----30.00- 68.4-----
2026-09-02 08:00 am NE 11.1 22.0----30.00+0.04 69.1-----
2026-09-02 07:50 am N 15.0 25.1----30.02- 68.9-----
2026-09-02 07:40 amNNW 22.0-----30.03- 70.7-----
2026-09-02 07:30 am NW------30.05- 72.1-----
2026-09-02 07:27 amWNW 18.1 29.9----30.05- 71.6-----
2026-09-02 07:20 am S 2.9 2.9----29.96- 71.4-----
2026-09-02 07:10 amSSE 1.9 4.1----29.96- 71.4-----
2026-09-02 07:00 amSSE 2.9 4.1----29.97+0.01 71.6-----
2026-09-02 06:50 am W 4.1 5.1----29.97- 71.4-----
2026-09-02 06:40 amWSW 2.9 4.1----29.96- 71.8-----
2026-09-02 06:30 am SW 2.9 2.9----29.95- 72.5-----
2026-09-02 06:20 am S 1.9 5.1----29.94- 72.1-----
2026-09-02 06:10 amSSE 5.1 6.0----29.92- 72.1-----
2026-09-02 06:00 amSSE 4.1 20.0----29.93- 72.3-----
2026-09-02 05:50 amSSE 4.1 4.1----29.94- 72.7-----
2026-09-02 05:40 am- 0.0 2.9----29.95- 72.9-----
2026-09-02 05:30 am W 2.9 2.9----29.95- 73.0-----
2026-09-02 05:20 am- 0.0 1.9----29.95- 72.9-----
2026-09-02 05:10 am W 1.0 2.9----29.95- 72.9-----
2026-09-02 05:00 am E 1.0 2.9----29.96+0.01 72.5-----
2026-09-02 04:50 am- 0.0 4.1----29.97- 72.3-----
2026-09-02 04:40 amWSW 2.9 6.0----29.96- 72.5-----
2026-09-02 04:30 am SW 6.0 8.0----29.97- 73.4-----
2026-09-02 04:20 am SW 4.1 6.0----29.96- 73.6-----
2026-09-02 04:10 amSSW 6.0 9.9----29.96- 72.9-----
2026-09-02 04:00 am S 6.0 11.1----29.96+0.02 73.8-----
2026-09-02 03:50 am S 8.9 11.1----29.95- 74.7-----